Time;durP1;ratioP1;P1;durP2;ratioP2;P2;SDS_P1;SDS_P2;PMS_P1;PMS_P2;Temp;Humidity;BMP_temperature;BMP_pressure;BME280_temperature;BME280_humidity;BME280_pressure;Samples;Min_cycle;Max_cycle;Signal;HPM_P1;HPM_P2
2022/11/24 00:01:05;;;;;;;34.13;15.83;;;4.00;99.90;;;;;;5077234;28;20290;-65
2022/11/24 00:03:33;;;;;;;39.13;16.90;;;4.00;99.90;;;;;;5078655;28;20197;-65
2022/11/24 00:06:04;;;;;;;34.40;14.63;;;4.00;99.90;;;;;;5078248;28;20214;-66
2022/11/24 00:08:32;;;;;;;28.53;12.50;;;4.00;99.90;;;;;;5062302;28;20208;-65
2022/11/24 00:11:03;;;;;;;32.63;15.03;;;4.00;99.90;;;;;;5074704;28;20193;-66
2022/11/24 00:13:31;;;;;;;38.67;16.97;;;4.00;99.90;;;;;;5080020;28;20690;-65
2022/11/24 00:16:08;;;;;;;38.83;17.53;;;4.00;99.90;;;;;;5076489;28;20193;-66
2022/11/24 00:18:37;;;;;;;31.67;14.63;;;4.00;99.90;;;;;;5085331;28;20200;-66
2022/11/24 00:21:04;;;;;;;38.50;16.20;;;3.90;99.90;;;;;;5077618;28;20631;-66
2022/11/24 00:23:31;;;;;;;42.73;18.17;;;4.00;99.90;;;;;;5061095;28;20215;-66
2022/11/24 00:26:04;;;;;;;40.33;16.93;;;4.00;99.90;;;;;;5076729;28;20235;-66
2022/11/24 00:28:33;;;;;;;34.90;14.57;;;4.00;99.90;;;;;;5077761;28;20277;-66
2022/11/24 00:31:00;;;;;;;40.93;16.83;;;4.00;99.90;;;;;;5078203;28;20201;-66
2022/11/24 00:33:27;;;;;;;34.63;15.73;;;4.00;99.90;;;;;;5077751;28;20197;-66
2022/11/24 00:35:57;;;;;;;35.23;14.70;;;4.00;99.90;;;;;;5075093;28;20221;-65
2022/11/24 00:38:24;;;;;;;35.70;15.87;;;4.00;99.90;;;;;;5087854;28;20199;-65
2022/11/24 00:40:52;;;;;;;34.33;15.63;;;4.00;99.90;;;;;;5067508;28;20234;-65
2022/11/24 00:43:19;;;;;;;39.20;16.70;;;4.10;99.90;;;;;;5081217;28;20284;-65
2022/11/24 00:45:46;;;;;;;36.93;16.83;;;4.10;99.90;;;;;;5077893;28;20533;-65
2022/11/24 00:48:14;;;;;;;37.00;16.87;;;4.00;99.90;;;;;;5058524;28;20204;-65
2022/11/24 00:50:41;;;;;;;36.43;16.60;;;4.00;99.90;;;;;;5078658;28;20275;-65
2022/11/24 00:53:09;;;;;;;36.10;15.93;;;3.90;99.90;;;;;;5079249;28;20193;-65
2022/11/24 00:55:36;;;;;;;36.80;17.37;;;3.90;99.90;;;;;;5084078;28;20189;-65
2022/11/24 00:58:04;;;;;;;41.93;18.27;;;3.90;99.90;;;;;;5075313;28;20193;-65
2022/11/24 01:00:31;;;;;;;39.10;16.97;;;3.90;99.90;;;;;;5078912;28;20186;-66
2022/11/24 01:02:58;;;;;;;33.23;16.07;;;3.80;99.90;;;;;;5076099;28;20780;-66
2022/11/24 01:05:25;;;;;;;36.40;16.00;;;3.80;99.90;;;;;;5076120;28;20219;-66
2022/11/24 01:07:53;;;;;;;39.87;16.97;;;3.70;99.90;;;;;;5077540;28;20471;-66
2022/11/24 01:10:21;;;;;;;31.43;14.87;;;3.70;99.90;;;;;;5077402;28;20199;-65
2022/11/24 01:12:49;;;;;;;29.53;13.47;;;3.70;99.90;;;;;;5078019;28;20196;-66
2022/11/24 01:15:16;;;;;;;29.60;13.93;;;3.70;99.90;;;;;;5077269;28;20193;-65
2022/11/24 01:17:43;;;;;;;27.20;12.57;;;3.70;99.90;;;;;;5077501;28;20188;-65
2022/11/24 01:20:11;;;;;;;28.17;12.60;;;3.70;99.90;;;;;;5076205;28;20208;-65
2022/11/24 01:22:40;;;;;;;28.57;14.60;;;3.80;99.90;;;;;;5067923;28;20205;-66
2022/11/24 01:25:08;;;;;;;29.00;14.07;;;3.80;99.90;;;;;;5075978;28;20240;-65
2022/11/24 01:27:37;;;;;;;33.67;15.07;;;3.80;99.90;;;;;;5077165;28;20204;-66
2022/11/24 01:30:06;;;;;;;31.70;14.97;;;3.90;99.90;;;;;;5076708;28;20235;-65
2022/11/24 01:32:35;;;;;;;36.60;15.80;;;3.90;99.90;;;;;;5075332;28;20266;-66
2022/11/24 01:35:02;;;;;;;36.10;15.47;;;3.90;99.90;;;;;;5080977;28;20203;-64
2022/11/24 01:37:29;;;;;;;37.20;16.40;;;3.90;99.90;;;;;;5066764;28;20223;-65
2022/11/24 01:39:56;;;;;;;26.57;12.40;;;3.80;99.90;;;;;;5083152;28;20193;-66
2022/11/24 01:42:23;;;;;;;28.83;13.50;;;3.80;99.90;;;;;;5074906;28;20201;-66
2022/11/24 01:45:32;;;;;;;32.70;13.37;;;3.80;99.90;;;;;;5065981;28;20220;-65
2022/11/24 01:48:04;;;;;;;37.10;15.53;;;3.80;99.90;;;;;;5077244;28;20192;-66
2022/11/24 01:50:31;;;;;;;30.80;13.50;;;3.80;99.90;;;;;;5078614;28;20193;-65
2022/11/24 01:52:58;;;;;;;33.73;14.77;;;3.80;99.90;;;;;;5075387;28;20528;-66
2022/11/24 01:55:29;;;;;;;31.67;15.23;;;3.80;99.90;;;;;;5086893;28;20193;-66
2022/11/24 01:58:00;;;;;;;34.90;14.70;;;3.80;99.90;;;;;;5067073;28;20607;-66
2022/11/24 02:00:28;;;;;;;36.10;15.37;;;3.70;99.90;;;;;;5072332;28;20197;-66
2022/11/24 02:02:58;;;;;;;26.37;13.00;;;3.80;99.90;;;;;;5074766;28;20196;-66
2022/11/24 02:05:30;;;;;;;26.93;12.67;;;3.80;99.90;;;;;;5073735;28;20216;-66
2022/11/24 02:08:00;;;;;;;32.30;14.77;;;3.80;99.90;;;;;;5074128;28;20553;-66
2022/11/24 02:10:29;;;;;;;31.70;14.40;;;3.80;99.90;;;;;;5072881;28;20262;-66
2022/11/24 02:12:58;;;;;;;23.07;11.43;;;3.80;99.90;;;;;;5085659;28;20257;-66
2022/11/24 02:15:26;;;;;;;28.90;13.43;;;3.80;99.90;;;;;;5078543;28;20198;-66
2022/11/24 02:17:54;;;;;;;24.50;11.83;;;3.80;99.90;;;;;;5078074;28;20296;-65
2022/11/24 02:20:21;;;;;;;21.77;10.37;;;3.90;99.90;;;;;;5070885;28;20200;-65
2022/11/24 02:22:54;;;;;;;25.47;11.90;;;3.90;99.90;;;;;;5072509;28;20200;-64
2022/11/24 02:25:34;;;;;;;33.77;14.80;;;3.90;99.90;;;;;;5077627;28;20201;-64
2022/11/24 02:28:07;;;;;;;29.27;14.00;;;3.90;99.90;;;;;;5073390;28;20253;-65
2022/11/24 02:30:34;;;;;;;33.77;15.23;;;3.90;99.90;;;;;;5077258;28;20266;-65
2022/11/24 02:33:02;;;;;;;35.97;15.87;;;3.80;99.90;;;;;;5073784;28;20209;-65
2022/11/24 02:35:30;;;;;;;36.17;16.33;;;3.80;99.90;;;;;;5071110;28;20671;-65
2022/11/24 02:37:57;;;;;;;28.20;13.30;;;3.80;99.90;;;;;;5074733;28;20231;-65
2022/11/24 02:40:30;;;;;;;28.30;13.10;;;3.80;99.90;;;;;;5078386;28;20204;-65
2022/11/24 02:43:01;;;;;;;28.80;13.53;;;3.80;99.90;;;;;;5080013;28;20679;-65
2022/11/24 02:45:31;;;;;;;34.37;15.27;;;3.80;99.90;;;;;;5070138;28;20209;-65
2022/11/24 02:47:58;;;;;;;26.83;11.83;;;3.80;99.90;;;;;;5078336;28;20184;-65
2022/11/24 02:50:25;;;;;;;24.47;11.20;;;3.80;99.90;;;;;;5059749;28;20204;-65
2022/11/24 02:52:52;;;;;;;25.37;11.47;;;3.80;99.90;;;;;;5076056;28;20300;-65
2022/11/24 02:55:20;;;;;;;34.83;15.30;;;3.90;99.90;;;;;;5068826;28;20208;-64
2022/11/24 02:57:47;;;;;;;32.33;15.70;;;3.90;99.90;;;;;;5081750;28;20289;-64
2022/11/24 03:00:15;;;;;;;27.33;12.97;;;3.90;99.90;;;;;;5088085;28;20204;-65
2022/11/24 03:02:44;;;;;;;33.87;14.73;;;3.90;99.90;;;;;;5076509;28;20193;-65
2022/11/24 03:05:12;;;;;;;38.70;16.13;;;3.80;99.90;;;;;;5066684;28;20211;-66
2022/11/24 03:07:39;;;;;;;35.43;15.87;;;3.80;99.90;;;;;;5083214;28;20695;-65
2022/11/24 03:10:06;;;;;;;37.60;17.27;;;3.80;99.90;;;;;;5070698;28;20193;-65
2022/11/24 03:12:34;;;;;;;39.00;16.37;;;3.80;99.90;;;;;;5080790;28;20261;-65
2022/11/24 03:15:02;;;;;;;38.10;16.80;;;3.70;99.90;;;;;;5082290;28;20197;-66
2022/11/24 03:17:29;;;;;;;75.73;31.50;;;3.70;99.90;;;;;;5082870;28;20200;-64
2022/11/24 03:19:58;;;;;;;49.77;21.73;;;3.70;99.90;;;;;;5070147;28;20701;-66
2022/11/24 03:22:26;;;;;;;49.30;20.17;;;3.70;99.90;;;;;;5077591;28;20188;-65
2022/11/24 03:24:53;;;;;;;35.03;15.73;;;3.70;99.90;;;;;;5082174;28;20220;-64
2022/11/24 03:27:20;;;;;;;33.47;15.37;;;3.70;99.90;;;;;;5073962;28;20579;-64
2022/11/24 03:29:47;;;;;;;31.67;14.33;;;3.70;99.90;;;;;;5082672;28;20224;-65
2022/11/24 03:32:14;;;;;;;40.43;16.77;;;3.70;99.90;;;;;;5078235;28;20601;-65
2022/11/24 03:34:41;;;;;;;43.63;17.53;;;3.70;99.90;;;;;;5077013;28;20532;-64
2022/11/24 03:37:10;;;;;;;43.60;17.00;;;3.70;99.90;;;;;;5064046;28;20193;-65
2022/11/24 03:39:38;;;;;;;38.00;16.23;;;3.70;99.90;;;;;;5078618;28;20216;-64
2022/11/24 03:42:05;;;;;;;30.97;13.23;;;3.70;99.90;;;;;;5077124;28;20193;-65
2022/11/24 03:44:32;;;;;;;40.70;16.57;;;3.70;99.90;;;;;;5079626;28;20211;-66
2022/11/24 03:46:59;;;;;;;45.87;19.50;;;3.80;99.90;;;;;;5085981;28;20644;-67
2022/11/24 03:49:26;;;;;;;52.63;21.47;;;3.80;99.90;;;;;;5060808;28;20615;-65
2022/11/24 03:51:53;;;;;;;59.30;23.33;;;3.80;99.90;;;;;;5076188;28;20238;-65
2022/11/24 03:54:22;;;;;;;58.03;24.30;;;3.80;99.90;;;;;;5080153;28;20193;-64
2022/11/24 03:56:49;;;;;;;48.63;19.60;;;3.80;99.90;;;;;;5082144;28;20247;-64
2022/11/24 03:59:18;;;;;;;39.87;17.43;;;3.80;99.90;;;;;;5077037;28;20687;-65
2022/11/24 04:01:45;;;;;;;43.83;18.33;;;3.80;99.90;;;;;;5084792;28;20551;-65
2022/11/24 04:04:12;;;;;;;38.43;16.53;;;3.90;99.90;;;;;;5074698;28;20205;-65
2022/11/24 04:06:40;;;;;;;35.13;14.63;;;3.90;99.90;;;;;;5071271;28;20293;-65
2022/11/24 04:09:07;;;;;;;43.47;16.70;;;3.90;99.90;;;;;;5075586;28;20201;-66
2022/11/24 04:14:20;;;;;;;40.53;16.37;;;4.00;99.90;;;;;;5073437;28;20272;-66
2022/11/24 04:16:47;;;;;;;39.53;16.60;;;4.00;99.90;;;;;;5067072;28;20193;-63
2022/11/24 04:19:14;;;;;;;40.23;15.70;;;3.90;99.90;;;;;;5078077;28;20692;-66
2022/11/24 04:21:42;;;;;;;34.03;14.60;;;3.90;99.90;;;;;;5077232;28;20548;-65
2022/11/24 04:24:09;;;;;;;34.03;14.47;;;3.80;99.90;;;;;;5064611;28;20529;-65
2022/11/24 04:26:38;;;;;;;27.73;12.87;;;3.80;99.90;;;;;;5072545;28;20637;-66
2022/11/24 04:29:05;;;;;;;30.20;13.83;;;3.80;99.90;;;;;;5089899;28;20297;-65
2022/11/24 04:31:32;;;;;;;31.07;13.73;;;3.90;99.90;;;;;;5079976;28;20202;-65
2022/11/24 04:33:59;;;;;;;42.13;16.47;;;3.90;99.90;;;;;;5067128;28;20564;-64
2022/11/24 04:36:26;;;;;;;29.27;12.47;;;3.80;99.90;;;;;;5058939;28;20197;-66
2022/11/24 04:38:53;;;;;;;30.20;12.97;;;3.80;99.90;;;;;;5074334;28;20204;-64
2022/11/24 04:41:21;;;;;;;29.23;13.23;;;3.80;99.90;;;;;;5056788;28;20211;-65
2022/11/24 04:43:50;;;;;;;26.20;11.87;;;3.80;99.90;;;;;;5080895;28;20280;-65
2022/11/24 04:46:18;;;;;;;24.57;11.27;;;3.80;99.90;;;;;;5075058;28;20220;-65
2022/11/24 04:48:45;;;;;;;21.83;10.40;;;3.80;99.90;;;;;;5078024;28;20954;-65
2022/11/24 04:51:14;;;;;;;21.37;9.63;;;3.90;99.90;;;;;;5077249;28;20266;-67
2022/11/24 04:53:41;;;;;;;18.30;8.40;;;3.90;99.90;;;;;;5083196;28;20254;-66
2022/11/24 04:56:09;;;;;;;17.80;8.13;;;3.90;99.90;;;;;;5078347;28;20273;-65
2022/11/24 04:58:36;;;;;;;22.57;9.83;;;4.00;99.90;;;;;;5080730;28;20188;-66
2022/11/24 05:01:08;;;;;;;35.00;13.93;;;4.00;99.90;;;;;;5086115;28;20647;-65
2022/11/24 05:03:35;;;;;;;37.57;15.17;;;4.00;99.90;;;;;;5085604;28;20200;-65
2022/11/24 05:06:03;;;;;;;36.73;13.87;;;4.00;99.90;;;;;;5062075;28;20741;-65
2022/11/24 05:08:30;;;;;;;42.23;16.90;;;4.00;99.90;;;;;;5077056;28;20200;-65
2022/11/24 05:10:57;;;;;;;39.50;15.73;;;4.00;99.90;;;;;;5076834;28;20202;-65
2022/11/24 05:13:26;;;;;;;51.03;19.10;;;4.00;99.90;;;;;;5083117;28;20214;-65
2022/11/24 05:15:53;;;;;;;49.77;19.07;;;3.90;99.90;;;;;;5078826;28;20599;-65
2022/11/24 05:18:21;;;;;;;47.67;18.67;;;3.90;99.90;;;;;;5079485;28;20201;-67
2022/11/24 05:20:48;;;;;;;40.33;17.00;;;3.80;99.90;;;;;;5081629;28;20189;-65
2022/11/24 05:23:16;;;;;;;51.67;19.00;;;3.80;99.90;;;;;;5069224;28;20278;-66
2022/11/24 05:25:43;;;;;;;46.17;17.37;;;3.80;99.90;;;;;;5081066;28;20199;-66
2022/11/24 05:28:10;;;;;;;38.30;15.80;;;3.80;99.90;;;;;;5081964;28;20214;-65
2022/11/24 05:30:38;;;;;;;31.03;13.20;;;3.80;99.90;;;;;;5077797;28;20197;-66
2022/11/24 05:33:07;;;;;;;26.63;11.67;;;3.80;99.90;;;;;;5079574;28;20216;-66
2022/11/24 05:35:36;;;;;;;26.57;11.60;;;3.80;99.90;;;;;;5076318;28;20254;-65
2022/11/24 05:38:04;;;;;;;44.33;17.07;;;3.90;99.90;;;;;;5074792;28;20177;-65
2022/11/24 05:40:35;;;;;;;40.47;15.80;;;3.90;99.90;;;;;;5079219;28;20231;-65
2022/11/24 05:43:02;;;;;;;29.07;12.70;;;3.90;99.90;;;;;;5078741;28;20197;-66
2022/11/24 05:45:29;;;;;;;37.80;14.80;;;3.90;99.90;;;;;;5082423;28;20279;-64
2022/11/24 05:48:05;;;;;;;34.83;13.93;;;4.00;99.90;;;;;;5075216;28;20576;-65
2022/11/24 05:50:33;;;;;;;40.40;15.70;;;4.00;99.90;;;;;;5069766;28;20736;-63
2022/11/24 05:53:04;;;;;;;35.73;15.30;;;4.10;99.90;;;;;;5080967;28;20560;-65
2022/11/24 05:55:32;;;;;;;38.07;15.00;;;4.00;99.90;;;;;;5085913;28;20188;-66
2022/11/24 05:58:00;;;;;;;24.40;11.23;;;4.10;99.90;;;;;;5085108;28;20280;-65
2022/11/24 06:00:27;;;;;;;36.57;14.53;;;4.10;99.90;;;;;;5076968;28;20223;-64
2022/11/24 06:02:54;;;;;;;37.20;14.97;;;4.00;99.90;;;;;;5071127;28;20216;-65
2022/11/24 06:05:22;;;;;;;36.20;14.00;;;4.00;99.90;;;;;;5076910;28;20215;-66
2022/11/24 06:07:49;;;;;;;23.70;10.93;;;4.10;99.90;;;;;;5059008;28;20691;-67
2022/11/24 06:10:18;;;;;;;32.77;12.70;;;4.10;99.90;;;;;;5077915;28;20197;-65
2022/11/24 06:12:46;;;;;;;27.10;12.00;;;4.10;99.90;;;;;;5083981;28;20275;-66
2022/11/24 06:15:13;;;;;;;30.73;13.70;;;4.10;99.90;;;;;;5082254;28;20194;-65
2022/11/24 06:17:41;;;;;;;42.80;16.83;;;4.10;99.90;;;;;;5076245;28;20188;-65
2022/11/24 06:20:09;;;;;;;37.27;15.80;;;4.10;99.90;;;;;;5080002;28;20205;-65
2022/11/24 06:22:36;;;;;;;36.40;15.00;;;4.10;99.90;;;;;;5074323;28;20192;-65
2022/11/24 06:25:04;;;;;;;41.63;15.77;;;4.10;99.90;;;;;;5085848;28;20196;-64
2022/11/24 06:27:33;;;;;;;49.27;19.10;;;4.10;99.90;;;;;;5079108;28;20211;-65
2022/11/24 06:30:00;;;;;;;43.60;17.27;;;4.00;99.90;;;;;;5075662;28;20725;-65
2022/11/24 06:32:27;;;;;;;50.50;19.10;;;4.00;99.90;;;;;;5076696;28;20552;-66
2022/11/24 06:34:54;;;;;;;44.93;18.27;;;4.00;99.90;;;;;;5072996;28;20193;-65
2022/11/24 06:37:21;;;;;;;36.30;15.53;;;3.90;99.90;;;;;;5078071;28;20541;-67
2022/11/24 06:39:48;;;;;;;56.67;20.87;;;3.90;99.90;;;;;;5074312;28;20192;-67
2022/11/24 06:42:17;;;;;;;43.30;17.30;;;3.90;99.90;;;;;;5075366;28;20188;-65
2022/11/24 06:44:46;;;;;;;48.60;19.63;;;3.90;99.90;;;;;;5072933;28;20298;-66
2022/11/24 06:47:14;;;;;;;49.47;18.80;;;3.90;99.90;;;;;;5076700;28;20208;-66
2022/11/24 06:49:41;;;;;;;55.57;21.07;;;3.90;99.90;;;;;;5078764;28;20280;-65
2022/11/24 06:52:08;;;;;;;52.33;19.37;;;3.90;99.90;;;;;;5076945;28;20203;-65
2022/11/24 06:54:35;;;;;;;46.83;16.90;;;3.80;99.90;;;;;;5070248;28;20192;-65
2022/11/24 06:57:02;;;;;;;35.03;13.43;;;3.80;99.90;;;;;;5079688;28;20196;-66
2022/11/24 06:59:29;;;;;;;35.60;14.27;;;3.80;99.90;;;;;;5074926;28;20197;-65
2022/11/24 07:01:58;;;;;;;48.57;19.20;;;3.80;99.90;;;;;;5077134;28;20641;-66
2022/11/24 07:04:25;;;;;;;46.77;17.13;;;3.80;99.90;;;;;;5066861;28;20605;-65
2022/11/24 07:06:52;;;;;;;42.50;16.57;;;3.80;99.90;;;;;;5069752;28;20354;-66
2022/11/24 07:09:19;;;;;;;29.00;12.30;;;3.80;99.90;;;;;;5073529;28;20199;-66
2022/11/24 07:11:46;;;;;;;38.40;13.57;;;3.80;99.90;;;;;;5078234;28;20417;-66
2022/11/24 07:14:14;;;;;;;39.30;14.23;;;3.80;99.90;;;;;;5060931;28;20231;-65
2022/11/24 07:16:41;;;;;;;38.87;15.30;;;3.80;99.90;;;;;;5078334;28;20197;-66
2022/11/24 07:19:10;;;;;;;39.70;15.37;;;3.80;99.90;;;;;;5076998;28;20211;-66
2022/11/24 07:21:37;;;;;;;30.43;12.93;;;3.80;99.90;;;;;;5059516;28;20196;-66
2022/11/24 07:24:05;;;;;;;33.73;13.33;;;3.80;99.90;;;;;;5078507;28;20213;-66
2022/11/24 07:26:36;;;;;;;41.10;14.80;;;3.80;99.90;;;;;;5076039;28;20211;-66
2022/11/24 07:29:04;;;;;;;36.03;15.10;;;3.80;99.90;;;;;;5080428;28;20614;-65
2022/11/24 07:31:31;;;;;;;55.50;20.83;;;3.80;99.90;;;;;;5075108;28;20202;-66
2022/11/24 07:33:58;;;;;;;41.57;15.27;;;3.80;99.90;;;;;;5080111;28;20246;-66
2022/11/24 07:36:27;;;;;;;41.00;15.40;;;3.80;99.90;;;;;;5075167;28;20189;-67
2022/11/24 07:38:54;;;;;;;30.13;12.17;;;3.80;99.90;;;;;;5065893;28;20197;-66
2022/11/24 07:41:21;;;;;;;28.80;11.37;;;3.80;99.90;;;;;;5080100;28;20196;-66
2022/11/24 07:43:49;;;;;;;39.00;14.27;;;3.80;99.90;;;;;;5065272;28;20196;-67
2022/11/24 07:46:19;;;;;;;40.30;14.70;;;3.90;99.90;;;;;;5066647;28;20594;-66
2022/11/24 07:48:47;;;;;;;49.63;18.37;;;3.90;99.90;;;;;;5060542;28;20216;-66
2022/11/24 07:51:14;;;;;;;35.67;14.17;;;3.90;99.90;;;;;;5076669;28;20601;-66
2022/11/24 07:53:43;;;;;;;28.20;11.23;;;3.90;99.90;;;;;;5076491;28;20333;-66
2022/11/24 07:56:11;;;;;;;27.87;11.20;;;3.90;99.90;;;;;;5073101;28;20197;-66
2022/11/24 07:58:38;;;;;;;25.77;10.33;;;3.90;99.90;;;;;;5064052;28;20705;-66
2022/11/24 08:01:13;;;;;;;32.20;12.13;;;4.00;99.90;;;;;;5064060;28;20310;-66
2022/11/24 08:03:41;;;;;;;25.00;10.50;;;4.00;99.90;;;;;;5080291;28;20184;-66
2022/11/24 08:06:08;;;;;;;37.10;12.97;;;4.00;99.90;;;;;;5075272;28;20196;-67
2022/11/24 08:08:36;;;;;;;45.67;16.60;;;4.00;99.90;;;;;;5069160;28;20219;-66
2022/11/24 08:11:09;;;;;;;33.53;14.03;;;4.00;99.90;;;;;;5080055;28;20675;-66
2022/11/24 08:13:37;;;;;;;46.30;16.63;;;4.00;99.90;;;;;;5077684;28;20693;-66
2022/11/24 08:16:06;;;;;;;49.13;17.37;;;4.10;99.90;;;;;;5074868;28;20193;-66
2022/11/24 08:18:33;;;;;;;32.70;13.50;;;4.00;99.90;;;;;;5076730;28;20606;-66
2022/11/24 08:21:01;;;;;;;34.17;13.63;;;4.00;99.90;;;;;;5080296;28;20184;-67
2022/11/24 08:23:28;;;;;;;30.50;11.73;;;4.00;99.90;;;;;;5076142;28;20185;-66
2022/11/24 08:25:56;;;;;;;41.00;15.60;;;4.00;99.90;;;;;;5081139;28;20193;-66
2022/11/24 08:28:33;;;;;;;53.00;17.70;;;4.00;99.90;;;;;;5066535;28;20240;-66
2022/11/24 08:31:10;;;;;;;51.60;18.30;;;4.10;99.90;;;;;;5087885;28;20200;-65
2022/11/24 08:33:47;;;;;;;55.87;19.90;;;4.10;99.90;;;;;;5048940;22;20268;-62
2022/11/24 08:36:20;;;;;;;55.97;19.87;;;4.00;99.90;;;;;;5039408;28;20201;-62
2022/11/24 08:38:48;;;;;;;53.10;19.37;;;4.00;99.90;;;;;;5062917;28;20537;-61
2022/11/24 08:41:17;;;;;;;36.10;14.50;;;4.00;99.90;;;;;;5056497;28;20690;-62
2022/11/24 08:43:45;;;;;;;54.73;19.77;;;4.00;99.90;;;;;;5058820;28;20205;-61
2022/11/24 08:46:16;;;;;;;53.67;19.47;;;4.00;99.90;;;;;;5057654;28;20640;-63
2022/11/24 08:48:44;;;;;;;57.80;20.10;;;4.10;99.90;;;;;;5062860;28;20241;-62
2022/11/24 08:51:13;;;;;;;49.90;17.67;;;4.00;99.90;;;;;;5056629;28;20212;-62
2022/11/24 08:53:41;;;;;;;31.40;13.33;;;4.10;99.90;;;;;;5058446;28;20209;-62
2022/11/24 08:56:10;;;;;;;34.83;12.97;;;4.10;99.90;;;;;;5038390;28;20205;-61
2022/11/24 08:58:38;;;;;;;24.40;11.17;;;4.10;99.90;;;;;;5057782;28;20296;-62
2022/11/24 09:01:08;;;;;;;41.10;15.23;;;4.10;99.90;;;;;;5058595;28;20727;-62
2022/11/24 09:03:38;;;;;;;39.50;13.93;;;4.10;99.90;;;;;;5054005;28;20197;-62
2022/11/24 09:06:06;;;;;;;35.20;13.50;;;4.10;99.90;;;;;;5038133;28;20657;-63
2022/11/24 09:08:33;;;;;;;42.87;15.90;;;4.20;99.90;;;;;;5052474;28;20201;-61
2022/11/24 09:11:01;;;;;;;47.67;18.13;;;4.20;99.90;;;;;;5058782;28;20193;-62
2022/11/24 09:13:29;;;;;;;56.03;19.57;;;4.20;99.90;;;;;;5057144;28;20560;-61
2022/11/24 09:15:56;;;;;;;55.77;19.43;;;4.20;99.90;;;;;;5058694;28;20209;-61
2022/11/24 09:18:24;;;;;;;55.00;19.17;;;4.20;99.90;;;;;;5062950;28;20637;-62
2022/11/24 09:20:51;;;;;;;40.83;15.40;;;4.10;99.90;;;;;;5055635;28;20185;-61
2022/11/24 09:23:18;;;;;;;34.07;14.43;;;4.10;99.90;;;;;;5040000;28;20232;-60
2022/11/24 09:25:45;;;;;;;40.20;16.33;;;4.10;99.90;;;;;;5040095;28;20200;-61
2022/11/24 09:28:12;;;;;;;36.10;14.60;;;4.10;99.90;;;;;;5054010;28;20300;-61
2022/11/24 09:30:39;;;;;;;30.80;12.43;;;4.10;99.90;;;;;;5056011;28;20201;-61
2022/11/24 09:33:06;;;;;;;31.77;12.63;;;4.10;99.90;;;;;;5037733;28;20554;-62
2022/11/24 09:35:40;;;;;;;31.50;12.70;;;4.10;99.90;;;;;;5061000;28;21658;-62
2022/11/24 09:38:07;;;;;;;37.90;14.37;;;4.10;99.90;;;;;;5058744;28;20220;-61
2022/11/24 09:40:34;;;;;;;35.13;12.80;;;4.10;99.90;;;;;;5043352;28;20204;-61
2022/11/24 09:43:06;;;;;;;38.37;14.90;;;4.10;99.90;;;;;;5054334;28;20215;-61
2022/11/24 09:45:46;;;;;;;33.03;12.40;;;4.10;99.90;;;;;;5057061;28;20240;-62
2022/11/24 09:48:22;;;;;;;37.20;13.90;;;4.10;99.90;;;;;;5048737;28;20664;-68
2022/11/24 09:50:52;;;;;;;52.17;19.30;;;4.10;99.90;;;;;;5041777;28;20220;-65
2022/11/24 09:53:26;;;;;;;41.97;16.30;;;4.10;99.90;;;;;;5062954;28;20193;-69
2022/11/24 09:55:57;;;;;;;48.03;18.33;;;4.10;99.90;;;;;;5050621;28;20275;-68
2022/11/24 09:58:36;;;;;;;42.10;16.23;;;4.10;99.90;;;;;;5056562;28;20241;-69
2022/11/24 10:01:10;;;;;;;34.50;13.83;;;4.10;99.90;;;;;;5036894;28;20208;-69
2022/11/24 10:03:42;;;;;;;28.93;12.20;;;4.10;99.90;;;;;;5054452;28;20366;-69
2022/11/24 10:06:22;;;;;;;39.00;14.10;;;4.10;99.90;;;;;;5035721;28;20210;-69
2022/11/24 10:09:07;;;;;;;38.57;15.17;;;4.20;99.90;;;;;;5054011;28;20312;-68
2022/11/24 10:11:39;;;;;;;39.93;15.47;;;4.20;99.90;;;;;;5057881;28;20702;-69
2022/11/24 10:14:51;;;;;;;42.87;17.13;;;4.20;99.90;;;;;;5050440;28;20281;-68
2022/11/24 10:17:29;;;;;;;38.03;15.57;;;4.20;99.90;;;;;;5013737;28;20875;-69
2022/11/24 10:20:03;;;;;;;36.03;14.77;;;4.20;99.90;;;;;;5054985;28;20196;-69
2022/11/24 10:22:41;;;;;;;28.43;12.10;;;4.20;99.90;;;;;;5053604;28;20257;-69
2022/11/24 10:25:16;;;;;;;25.13;11.07;;;4.20;99.90;;;;;;5055461;28;20334;-70
2022/11/24 10:27:45;;;;;;;34.57;12.07;;;4.20;99.90;;;;;;5038815;28;20208;-69
2022/11/24 10:30:15;;;;;;;36.33;14.07;;;4.30;99.90;;;;;;5058428;28;20198;-68
2022/11/24 10:32:46;;;;;;;36.60;13.73;;;4.30;99.90;;;;;;5064690;28;20327;-69
2022/11/24 10:35:19;;;;;;;44.07;16.00;;;4.30;99.90;;;;;;5078139;28;20262;-69
2022/11/24 10:38:01;;;;;;;47.67;18.03;;;4.30;99.90;;;;;;5057112;28;20625;-69
2022/11/24 10:40:36;;;;;;;55.67;20.37;;;4.20;99.90;;;;;;5079417;28;20311;-69
2022/11/24 10:43:09;;;;;;;60.33;22.10;;;4.10;99.90;;;;;;5075376;28;20221;-69
2022/11/24 10:45:38;;;;;;;45.30;17.40;;;4.10;99.90;;;;;;5073916;28;20254;-69
2022/11/24 10:48:08;;;;;;;47.13;18.23;;;4.00;99.90;;;;;;5077556;28;20239;-70
2022/11/24 10:50:38;;;;;;;42.70;16.10;;;4.00;99.90;;;;;;5075458;28;20303;-68
2022/11/24 10:53:18;;;;;;;51.77;18.07;;;4.00;99.90;;;;;;5076295;28;20192;-70
2022/11/24 10:56:04;;;;;;;49.13;18.00;;;4.00;99.90;;;;;;5064400;28;20220;-69
2022/11/24 10:58:33;;;;;;;49.77;18.57;;;3.90;99.90;;;;;;5081293;28;20246;-69
2022/11/24 11:01:03;;;;;;;50.60;18.37;;;4.00;99.90;;;;;;5074699;28;20197;-69
2022/11/24 11:03:33;;;;;;;51.43;17.80;;;4.00;99.90;;;;;;5076419;28;20277;-69
2022/11/24 11:06:09;;;;;;;49.13;18.03;;;4.00;99.90;;;;;;5079433;28;20653;-69
2022/11/24 11:08:37;;;;;;;56.73;20.77;;;4.00;99.90;;;;;;5062178;28;20208;-70
2022/11/24 11:11:16;;;;;;;46.77;17.47;;;4.10;99.90;;;;;;5079157;28;20337;-69
2022/11/24 11:13:55;;;;;;;39.57;15.40;;;4.00;99.90;;;;;;5078499;28;20348;-69
2022/11/24 11:16:33;;;;;;;37.10;14.90;;;4.00;99.90;;;;;;5079870;28;20199;-69
2022/11/24 11:19:02;;;;;;;37.93;15.53;;;4.10;99.90;;;;;;5078169;28;20253;-69
2022/11/24 11:21:33;;;;;;;33.27;13.27;;;4.10;99.90;;;;;;5064671;28;20215;-69
2022/11/24 11:24:04;;;;;;;32.47;13.03;;;4.20;99.90;;;;;;5059972;28;20327;-69
2022/11/24 11:26:34;;;;;;;33.63;13.30;;;4.20;99.90;;;;;;5082769;28;20212;-69
2022/11/24 11:29:12;;;;;;;37.00;14.67;;;4.30;99.90;;;;;;5082000;28;20195;-69
2022/11/24 11:31:40;;;;;;;29.17;12.27;;;4.30;99.90;;;;;;5080211;28;20355;-69
2022/11/24 11:34:14;;;;;;;42.87;16.10;;;4.40;99.90;;;;;;5063082;28;20600;-69
2022/11/24 11:36:45;;;;;;;41.37;15.23;;;4.30;99.90;;;;;;5080898;28;20278;-68
2022/11/24 11:39:23;;;;;;;47.23;16.87;;;4.30;99.90;;;;;;5077075;28;20189;-69
2022/11/24 11:41:57;;;;;;;44.10;16.70;;;4.30;99.90;;;;;;5058488;28;20277;-69
2022/11/24 11:44:34;;;;;;;42.67;15.27;;;4.30;99.90;;;;;;5075478;28;20196;-69
2022/11/24 11:47:11;;;;;;;34.67;13.90;;;4.30;99.90;;;;;;5074934;28;20624;-69
2022/11/24 11:49:39;;;;;;;33.23;12.53;;;4.30;99.90;;;;;;5075335;28;20242;-70
2022/11/24 11:52:27;;;;;;;41.20;15.53;;;4.30;99.90;;;;;;5064775;28;20636;-68
2022/11/24 11:55:27;;;;;;;50.67;18.23;;;4.30;99.90;;;;;;5077296;28;20633;-69
2022/11/24 11:58:04;;;;;;;44.20;16.40;;;4.30;99.90;;;;;;5076280;28;20193;-69
2022/11/24 12:00:38;;;;;;;46.83;16.83;;;4.30;99.90;;;;;;5082156;28;20192;-69
2022/11/24 12:03:31;;;;;;;47.60;15.93;;;4.20;99.90;;;;;;5075482;28;20287;-69
2022/11/24 12:06:08;;;;;;;55.60;20.43;;;4.30;99.90;;;;;;5075660;28;20196;-69
2022/11/24 12:08:46;;;;;;;60.20;21.60;;;4.30;99.90;;;;;;5059784;28;20762;-69
2022/11/24 12:11:23;;;;;;;60.60;21.93;;;4.20;99.90;;;;;;5063100;28;20305;-69
2022/11/24 12:14:06;;;;;;;50.63;20.10;;;4.20;99.90;;;;;;5075713;28;20671;-67
2022/11/24 12:16:44;;;;;;;66.97;22.67;;;4.20;99.90;;;;;;5062356;28;20296;-66
2022/11/24 12:19:28;;;;;;;56.57;20.97;;;4.20;99.90;;;;;;5078963;28;20192;-66
2022/11/24 12:22:04;;;;;;;62.50;20.93;;;4.10;99.90;;;;;;5061902;28;20615;-66
2022/11/24 12:24:40;;;;;;;69.60;21.87;;;4.10;99.90;;;;;;5060278;28;20217;-66
2022/11/24 12:27:18;;;;;;;55.53;20.57;;;4.20;99.90;;;;;;5059422;28;20238;-66
2022/11/24 12:30:10;;;;;;;43.33;16.40;;;4.20;99.90;;;;;;5057163;28;20300;-67
2022/11/24 12:33:00;;;;;;;44.73;15.33;;;4.20;99.90;;;;;;5079963;28;20780;-67
2022/11/24 12:35:35;;;;;;;52.70;18.77;;;4.20;99.90;;;;;;5074355;28;20242;-67
2022/11/24 12:38:15;;;;;;;43.93;15.83;;;4.20;99.90;;;;;;5084735;28;20781;-67
2022/11/24 12:41:03;;;;;;;37.73;13.83;;;4.30;99.90;;;;;;5074310;28;20215;-65
2022/11/24 12:43:35;;;;;;;58.00;20.83;;;4.30;99.90;;;;;;5054568;28;20649;-66
2022/11/24 12:46:14;;;;;;;48.33;18.83;;;4.30;99.90;;;;;;5081034;28;20195;-67
2022/11/24 12:48:52;;;;;;;53.40;18.70;;;4.30;99.90;;;;;;5054754;28;20216;-67
2022/11/24 12:51:22;;;;;;;43.80;16.67;;;4.20;99.90;;;;;;5072621;28;20214;-66
2022/11/24 12:53:52;;;;;;;46.13;17.17;;;4.30;99.90;;;;;;5076107;28;20280;-67
2022/11/24 12:56:28;;;;;;;55.87;19.80;;;4.30;99.90;;;;;;5077076;28;20184;-66